Time;durP1;ratioP1;P1;durP2;ratioP2;P2;SDS_P1;SDS_P2;PMS_P1;PMS_P2;Temp;Humidity;BMP_temperature;BMP_pressure;BME280_temperature;BME280_humidity;BME280_pressure;Samples;Min_cycle;Max_cycle;Signal;HPM_P1;HPM_P2
2021/05/05 00:01:05;;;;;;;2.77;2.53;;;8.10;99.90;;;;;;5054599;28;20289;-69
2021/05/05 00:03:32;;;;;;;3.00;2.10;;;8.10;99.90;;;;;;5055983;28;20263;-69
2021/05/05 00:05:58;;;;;;;2.47;2.27;;;8.00;99.90;;;;;;5056109;28;20437;-69
2021/05/05 00:08:24;;;;;;;2.20;2.00;;;8.10;99.90;;;;;;5055186;28;20445;-69
2021/05/05 00:10:51;;;;;;;3.20;2.20;;;8.10;99.90;;;;;;5056051;28;20429;-69
2021/05/05 00:13:18;;;;;;;2.43;2.10;;;8.10;99.90;;;;;;5057196;28;20917;-69
2021/05/05 00:15:44;;;;;;;6.70;2.37;;;8.00;99.90;;;;;;5056469;28;20808;-69
2021/05/05 00:18:09;;;;;;;2.20;2.00;;;8.10;99.90;;;;;;5056398;28;20420;-69
2021/05/05 00:20:36;;;;;;;3.20;2.27;;;8.00;99.90;;;;;;5053146;28;20461;-69
2021/05/05 00:23:01;;;;;;;3.10;2.40;;;8.00;99.90;;;;;;5053947;28;20165;-69
2021/05/05 00:25:27;;;;;;;2.90;2.60;;;8.00;99.90;;;;;;5053532;28;20410;-69
2021/05/05 00:27:52;;;;;;;3.60;2.00;;;8.00;99.90;;;;;;5053364;28;20228;-70
2021/05/05 00:30:19;;;;;;;3.10;2.73;;;8.10;99.90;;;;;;5053898;28;20387;-69
2021/05/05 00:32:45;;;;;;;2.60;2.40;;;8.10;99.90;;;;;;5052938;28;20174;-69
2021/05/05 00:35:12;;;;;;;3.00;2.00;;;8.10;99.90;;;;;;5053550;28;20450;-69
2021/05/05 00:37:38;;;;;;;2.93;2.70;;;8.10;99.90;;;;;;5053585;28;20183;-69
2021/05/05 00:40:04;;;;;;;2.80;2.27;;;8.10;99.90;;;;;;5053291;28;20425;-69
2021/05/05 00:42:30;;;;;;;2.30;2.10;;;8.20;99.90;;;;;;5053332;28;20281;-69
2021/05/05 00:45:01;;;;;;;2.10;1.90;;;8.10;99.90;;;;;;5054049;28;20972;-69
2021/05/05 00:47:27;;;;;;;2.30;2.10;;;8.00;99.90;;;;;;5053574;28;20166;-71
2021/05/05 00:49:53;;;;;;;3.90;2.23;;;8.10;99.90;;;;;;5055113;28;20425;-70
2021/05/05 00:52:20;;;;;;;2.80;1.80;;;8.20;99.90;;;;;;5057693;28;20819;-70
2021/05/05 00:54:45;;;;;;;3.13;2.33;;;8.10;99.90;;;;;;5058773;28;20424;-69
2021/05/05 00:57:12;;;;;;;2.37;1.70;;;8.10;99.90;;;;;;5066481;28;20400;-69
2021/05/05 00:59:38;;;;;;;3.37;2.00;;;8.00;99.90;;;;;;5056411;28;20216;-69
2021/05/05 01:02:04;;;;;;;3.03;2.47;;;7.90;99.90;;;;;;5057817;28;20452;-69
2021/05/05 01:04:30;;;;;;;1.83;1.50;;;7.90;99.90;;;;;;5056843;28;20202;-69
2021/05/05 01:06:55;;;;;;;1.93;1.83;;;8.00;99.90;;;;;;5057710;28;20422;-69
2021/05/05 01:09:21;;;;;;;5.93;2.23;;;8.00;99.90;;;;;;5057202;28;20220;-69
2021/05/05 01:11:47;;;;;;;2.83;2.00;;;8.00;99.90;;;;;;5057377;28;20186;-69
2021/05/05 01:14:12;;;;;;;2.80;2.00;;;8.00;99.90;;;;;;5056940;28;20273;-69
2021/05/05 01:16:38;;;;;;;1.83;1.73;;;8.00;99.90;;;;;;5057222;28;20179;-69
2021/05/05 01:19:04;;;;;;;2.80;1.90;;;8.00;99.90;;;;;;5057384;28;20194;-69
2021/05/05 01:21:30;;;;;;;2.37;2.17;;;8.00;99.90;;;;;;5066047;28;20189;-69
2021/05/05 01:23:55;;;;;;;2.70;2.10;;;7.90;99.90;;;;;;5056924;28;20185;-70
2021/05/05 01:26:21;;;;;;;2.70;1.73;;;8.00;99.90;;;;;;5055422;28;20171;-69
2021/05/05 01:28:47;;;;;;;3.67;2.37;;;7.90;99.90;;;;;;5056130;28;20269;-70
2021/05/05 01:31:15;;;;;;;1.60;1.50;;;8.00;99.90;;;;;;5055571;28;20490;-70
2021/05/05 01:33:42;;;;;;;2.77;2.03;;;8.00;99.90;;;;;;5056886;28;20414;-69
2021/05/05 01:36:10;;;;;;;7.43;2.90;;;7.80;99.90;;;;;;5056442;28;20897;-70
2021/05/05 01:38:36;;;;;;;3.43;2.50;;;7.80;99.90;;;;;;5056513;28;20387;-70
2021/05/05 01:41:03;;;;;;;5.80;1.90;;;7.80;99.90;;;;;;5056518;28;20460;-69
2021/05/05 01:43:28;;;;;;;4.17;2.40;;;7.80;99.90;;;;;;5056503;28;20439;-69
2021/05/05 01:45:54;;;;;;;2.90;2.00;;;7.70;99.90;;;;;;5056054;28;20922;-69
2021/05/05 01:48:19;;;;;;;4.03;2.30;;;7.80;99.90;;;;;;5056063;28;20234;-69
2021/05/05 01:50:45;;;;;;;3.93;2.30;;;7.90;99.90;;;;;;5056285;28;20675;-69
2021/05/05 01:53:16;;;;;;;3.47;2.30;;;7.90;99.90;;;;;;5056570;28;20290;-70
2021/05/05 01:55:42;;;;;;;2.23;2.00;;;7.90;99.90;;;;;;5056582;28;20400;-69
2021/05/05 01:58:07;;;;;;;3.27;2.00;;;8.00;99.90;;;;;;5056140;28;20405;-70
2021/05/05 02:00:33;;;;;;;3.93;2.30;;;7.90;99.90;;;;;;5055579;28;20795;-69
2021/05/05 02:02:58;;;;;;;2.20;2.00;;;7.90;99.90;;;;;;5055756;28;20169;-69
2021/05/05 02:05:24;;;;;;;2.30;2.10;;;7.90;99.90;;;;;;5056137;28;20174;-69
2021/05/05 02:07:50;;;;;;;5.43;2.03;;;8.00;99.90;;;;;;5056323;28;20174;-69
2021/05/05 02:10:18;;;;;;;5.77;2.60;;;8.10;99.90;;;;;;5055627;28;20205;-69
2021/05/05 02:12:44;;;;;;;4.03;2.42;;;8.00;99.90;;;;;;5054249;28;20888;-69
2021/05/05 02:15:12;;;;;;;4.17;3.10;;;8.00;99.90;;;;;;5056381;28;20171;-69
2021/05/05 02:17:38;;;;;;;3.50;2.90;;;8.00;99.90;;;;;;5056272;28;20503;-69
2021/05/05 02:20:06;;;;;;;4.00;3.17;;;7.90;99.90;;;;;;5055032;28;20448;-69
2021/05/05 02:22:31;;;;;;;3.63;2.70;;;7.90;99.90;;;;;;5035918;28;20507;-69
2021/05/05 02:24:57;;;;;;;2.60;2.40;;;7.80;99.90;;;;;;5035917;28;20407;-69
2021/05/05 02:27:22;;;;;;;4.33;2.40;;;7.80;99.90;;;;;;5035694;28;20635;-70
2021/05/05 02:29:48;;;;;;;2.70;2.50;;;7.70;99.90;;;;;;5035527;28;20206;-70
2021/05/05 02:32:16;;;;;;;4.23;3.30;;;7.70;99.90;;;;;;5049124;28;20243;-69
2021/05/05 02:34:42;;;;;;;3.80;3.20;;;7.70;99.90;;;;;;5055494;28;20858;-69
2021/05/05 02:37:09;;;;;;;2.50;2.30;;;7.70;99.90;;;;;;5055413;28;20415;-70
2021/05/05 02:39:39;;;;;;;2.43;2.20;;;7.70;99.90;;;;;;5055853;28;20228;-70
2021/05/05 02:42:10;;;;;;;3.40;2.87;;;7.80;99.90;;;;;;5054709;28;20483;-69
2021/05/05 02:44:36;;;;;;;3.50;3.20;;;7.70;99.90;;;;;;5055269;28;20398;-69
2021/05/05 02:47:02;;;;;;;5.03;3.90;;;7.70;99.90;;;;;;5055647;28;20460;-69
2021/05/05 02:49:29;;;;;;;3.80;3.17;;;7.60;99.90;;;;;;5054794;28;20794;-69
2021/05/05 02:51:54;;;;;;;3.40;3.10;;;7.60;99.90;;;;;;5055519;28;20445;-69
2021/05/05 02:54:20;;;;;;;3.23;2.93;;;7.60;99.90;;;;;;5055145;28;20430;-70
2021/05/05 02:56:46;;;;;;;7.07;3.60;;;7.50;99.90;;;;;;5055158;28;20174;-69
2021/05/05 02:59:11;;;;;;;5.83;3.97;;;7.50;99.90;;;;;;5055003;28;20840;-70
2021/05/05 03:01:37;;;;;;;6.87;3.57;;;7.50;99.90;;;;;;5054769;28;20236;-69
2021/05/05 03:04:03;;;;;;;3.70;3.40;;;7.60;99.90;;;;;;5054630;28;20311;-70
2021/05/05 03:06:30;;;;;;;6.03;3.87;;;7.60;99.90;;;;;;5055143;28;20583;-69
2021/05/05 03:08:56;;;;;;;5.83;3.70;;;7.50;99.90;;;;;;5054763;28;20433;-70
2021/05/05 03:11:22;;;;;;;5.47;4.10;;;7.50;99.90;;;;;;5055045;28;20413;-69
2021/05/05 03:13:47;;;;;;;4.37;3.90;;;7.60;99.90;;;;;;5053238;28;20431;-69
2021/05/05 03:16:13;;;;;;;5.70;4.03;;;7.70;99.90;;;;;;5054763;28;20253;-69
2021/05/05 03:18:39;;;;;;;3.83;3.53;;;7.70;99.90;;;;;;5053194;28;20281;-70
2021/05/05 03:21:04;;;;;;;4.93;4.30;;;7.70;99.90;;;;;;5053633;28;20233;-69
2021/05/05 03:23:31;;;;;;;6.73;3.77;;;7.70;99.90;;;;;;5054815;28;20513;-70
2021/05/05 03:25:56;;;;;;;5.13;4.00;;;7.70;99.90;;;;;;5054057;28;20178;-69
2021/05/05 03:28:22;;;;;;;4.57;4.10;;;7.70;99.90;;;;;;5054312;28;20417;-69
2021/05/05 03:30:47;;;;;;;4.37;3.97;;;7.70;99.90;;;;;;5054316;28;20198;-72
2021/05/05 03:33:13;;;;;;;4.23;3.93;;;7.70;99.90;;;;;;5055079;28;20158;-70
2021/05/05 03:35:39;;;;;;;5.63;4.23;;;7.70;99.90;;;;;;5053862;28;20202;-70
2021/05/05 03:38:04;;;;;;;4.40;4.00;;;7.70;99.90;;;;;;5054321;28;20199;-70
2021/05/05 03:40:30;;;;;;;5.70;4.37;;;7.70;99.90;;;;;;5054591;28;20721;-70
2021/05/05 03:42:56;;;;;;;4.80;4.40;;;7.60;99.90;;;;;;5053846;28;20193;-70
2021/05/05 03:45:21;;;;;;;4.80;4.30;;;7.60;99.90;;;;;;5053849;28;20533;-70
2021/05/05 03:47:47;;;;;;;8.93;5.73;;;7.50;99.90;;;;;;5034761;28;20630;-70
2021/05/05 03:50:13;;;;;;;6.30;4.40;;;7.50;99.90;;;;;;5034254;28;20203;-70
2021/05/05 03:52:38;;;;;;;8.80;5.10;;;7.50;99.90;;;;;;5034600;28;20250;-70
2021/05/05 03:55:05;;;;;;;8.47;4.90;;;7.50;99.90;;;;;;5034620;28;20191;-70
2021/05/05 03:57:31;;;;;;;5.07;4.40;;;7.40;99.90;;;;;;5046610;28;20180;-70
2021/05/05 03:59:57;;;;;;;7.10;5.03;;;7.40;99.90;;;;;;5054672;28;20432;-70
2021/05/05 04:02:22;;;;;;;6.13;4.80;;;7.50;99.90;;;;;;5055631;28;20205;-68
2021/05/05 04:04:48;;;;;;;7.97;5.63;;;7.40;99.90;;;;;;5057477;28;20192;-70
2021/05/05 04:07:14;;;;;;;5.20;4.70;;;7.40;99.90;;;;;;5054674;28;20174;-70
2021/05/05 04:09:39;;;;;;;8.17;5.40;;;7.40;99.90;;;;;;5056468;28;20496;-68
2021/05/05 04:12:07;;;;;;;5.90;5.40;;;7.40;99.90;;;;;;5062485;28;20393;-70
2021/05/05 04:14:32;;;;;;;6.47;5.10;;;7.40;99.90;;;;;;5044426;28;20190;-68
2021/05/05 04:16:58;;;;;;;7.43;4.57;;;7.40;99.90;;;;;;5047269;28;20428;-69
2021/05/05 04:19:24;;;;;;;6.17;5.20;;;7.40;99.90;;;;;;5054771;28;20472;-69
2021/05/05 04:21:50;;;;;;;7.23;6.00;;;7.40;99.90;;;;;;5050398;28;20209;-69
2021/05/05 04:24:17;;;;;;;6.73;4.83;;;7.50;99.90;;;;;;5042432;28;20644;-69
2021/05/05 04:26:45;;;;;;;7.40;5.40;;;7.50;99.90;;;;;;5042369;28;20492;-69
2021/05/05 04:29:10;;;;;;;6.17;5.57;;;7.50;99.90;;;;;;5056828;28;20887;-70
2021/05/05 04:31:36;;;;;;;7.33;5.63;;;7.60;99.90;;;;;;5052537;28;20464;-68
2021/05/05 04:34:01;;;;;;;5.97;5.33;;;7.50;99.90;;;;;;5043066;28;20653;-70
2021/05/05 04:36:27;;;;;;;6.77;5.97;;;7.60;99.90;;;;;;5042948;28;20202;-70
2021/05/05 04:38:52;;;;;;;10.10;5.63;;;7.60;99.90;;;;;;5036657;28;20190;-70
2021/05/05 04:41:18;;;;;;;6.33;5.73;;;7.60;99.90;;;;;;5046037;28;20253;-70
2021/05/05 04:43:43;;;;;;;9.67;6.40;;;7.50;99.90;;;;;;5046648;28;20203;-70
2021/05/05 04:46:09;;;;;;;8.00;7.00;;;7.50;99.90;;;;;;5041532;28;20423;-70
2021/05/05 04:48:34;;;;;;;7.77;6.57;;;7.60;99.90;;;;;;5034109;28;20178;-70
2021/05/05 04:51:00;;;;;;;7.30;6.40;;;7.60;99.90;;;;;;5050009;28;20178;-70
2021/05/05 04:53:26;;;;;;;8.00;6.10;;;7.70;99.90;;;;;;5053572;28;20236;-70
2021/05/05 04:55:52;;;;;;;7.33;6.60;;;7.60;99.90;;;;;;5045106;28;20504;-69
2021/05/05 04:58:18;;;;;;;7.23;6.50;;;7.60;99.90;;;;;;5053533;28;20196;-69
2021/05/05 05:00:44;;;;;;;7.77;6.97;;;7.70;99.90;;;;;;5053454;28;20950;-69
2021/05/05 05:03:09;;;;;;;11.87;6.33;;;7.60;99.90;;;;;;5053414;28;20417;-69
2021/05/05 05:05:35;;;;;;;7.00;6.23;;;7.60;99.90;;;;;;5048919;28;20317;-70
2021/05/05 05:08:00;;;;;;;7.60;6.73;;;7.60;99.90;;;;;;5045627;28;20204;-70
2021/05/05 05:10:26;;;;;;;8.43;6.73;;;7.60;99.90;;;;;;5048425;28;20202;-70
2021/05/05 05:12:52;;;;;;;10.37;7.10;;;7.60;99.90;;;;;;5049317;28;20182;-69
2021/05/05 05:15:17;;;;;;;8.40;7.60;;;7.50;99.90;;;;;;5049655;28;20632;-70
2021/05/05 05:17:43;;;;;;;11.57;7.50;;;7.50;99.90;;;;;;5049494;28;20166;-70
2021/05/05 05:20:09;;;;;;;7.60;6.80;;;7.50;99.90;;;;;;5049404;28;20193;-70
2021/05/05 05:22:36;;;;;;;8.40;7.50;;;7.50;99.90;;;;;;5048406;28;20228;-70
2021/05/05 05:25:07;;;;;;;7.97;6.93;;;7.50;99.90;;;;;;5049718;28;20416;-71
2021/05/05 05:27:33;;;;;;;8.33;7.47;;;7.60;99.90;;;;;;5048966;28;20449;-70
2021/05/05 05:29:59;;;;;;;10.77;7.30;;;7.60;99.90;;;;;;5045040;28;20489;-71
2021/05/05 05:32:24;;;;;;;13.83;8.60;;;7.60;99.90;;;;;;5031057;28;20653;-71
2021/05/05 05:34:50;;;;;;;11.63;7.00;;;7.60;99.90;;;;;;5044897;28;20194;-70
2021/05/05 05:37:15;;;;;;;10.10;7.47;;;7.60;99.90;;;;;;5033887;28;20208;-70
2021/05/05 05:39:41;;;;;;;9.13;7.17;;;7.00;99.90;;;;;;5041148;28;20653;-70
2021/05/05 05:42:07;;;;;;;8.67;7.77;;;6.40;99.90;;;;;;5043986;28;20198;-70
2021/05/05 05:44:33;;;;;;;9.90;8.40;;;6.20;99.90;;;;;;5045628;28;20265;-69
2021/05/05 05:46:58;;;;;;;11.57;9.40;;;6.10;99.90;;;;;;5056130;28;20420;-70
2021/05/05 05:49:24;;;;;;;13.97;11.20;;;6.20;99.90;;;;;;5051738;28;20189;-70
2021/05/05 05:51:49;;;;;;;12.97;11.10;;;6.30;99.90;;;;;;5068296;28;20646;-71
2021/05/05 05:54:15;;;;;;;15.67;11.80;;;6.20;99.90;;;;;;5065105;28;20675;-70
2021/05/05 05:56:41;;;;;;;15.43;12.30;;;6.30;99.90;;;;;;5060250;28;20184;-70
2021/05/05 05:59:06;;;;;;;15.83;10.73;;;6.20;99.90;;;;;;5067010;28;20431;-70
2021/05/05 06:01:32;;;;;;;14.20;10.90;;;6.20;99.90;;;;;;5064646;28;20252;-70
2021/05/05 06:03:57;;;;;;;15.50;11.33;;;6.10;99.90;;;;;;5056679;28;20173;-70
2021/05/05 06:06:23;;;;;;;14.63;12.23;;;6.00;99.90;;;;;;5058436;27;20240;-70
2021/05/05 06:08:49;;;;;;;14.27;12.50;;;6.00;99.90;;;;;;5076747;28;20220;-70
2021/05/05 06:11:14;;;;;;;15.20;12.43;;;6.20;99.90;;;;;;5074984;28;20235;-70
2021/05/05 06:13:40;;;;;;;15.80;12.43;;;6.40;99.90;;;;;;5076111;28;20248;-70
2021/05/05 06:16:06;;;;;;;15.30;11.87;;;6.50;99.90;;;;;;5076279;28;20180;-70
2021/05/05 06:18:31;;;;;;;12.90;11.13;;;6.60;99.90;;;;;;5075909;28;20173;-70
2021/05/05 06:20:57;;;;;;;17.40;10.27;;;6.70;99.90;;;;;;5056920;28;20874;-70
2021/05/05 06:23:23;;;;;;;19.73;10.80;;;6.80;99.90;;;;;;5054490;28;20183;-70
2021/05/05 06:25:48;;;;;;;12.77;9.27;;;7.00;99.90;;;;;;5073974;28;20732;-70
2021/05/05 06:28:14;;;;;;;13.20;10.00;;;7.20;99.90;;;;;;5071878;28;20510;-70
2021/05/05 06:30:39;;;;;;;15.80;10.23;;;7.20;99.90;;;;;;5073148;28;20231;-70
2021/05/05 06:33:05;;;;;;;17.03;9.40;;;7.30;99.90;;;;;;5071295;28;20804;-70
2021/05/05 06:35:31;;;;;;;19.07;10.17;;;7.40;99.90;;;;;;5052920;28;20715;-70
2021/05/05 06:37:56;;;;;;;19.33;10.33;;;7.40;99.90;;;;;;5054503;28;20193;-71
2021/05/05 06:40:22;;;;;;;100.80;17.50;;;7.50;99.90;;;;;;5055124;28;20190;-70
2021/05/05 06:42:47;;;;;;;62.83;13.77;;;7.60;99.90;;;;;;5055484;28;20543;-70
2021/05/05 06:45:13;;;;;;;46.83;11.90;;;7.60;99.90;;;;;;5055281;28;20614;-70
2021/05/05 06:47:39;;;;;;;14.57;9.33;;;7.60;99.90;;;;;;5055035;28;20182;-70
2021/05/05 06:50:09;;;;;;;41.13;11.40;;;7.60;99.90;;;;;;5056767;28;20792;-70
2021/05/05 06:52:35;;;;;;;34.83;11.10;;;7.40;99.90;;;;;;5055052;28;20179;-69
2021/05/05 06:55:00;;;;;;;15.00;7.70;;;7.10;99.90;;;;;;5055334;28;20412;-70
2021/05/05 06:57:26;;;;;;;10.30;6.00;;;6.80;99.90;;;;;;5055977;28;20465;-70
2021/05/05 06:59:51;;;;;;;6.10;5.50;;;6.40;99.90;;;;;;5074844;28;20193;-71
2021/05/05 07:02:17;;;;;;;9.27;6.60;;;6.20;99.90;;;;;;5074926;28;20216;-70
2021/05/05 07:04:43;;;;;;;8.70;7.67;;;6.20;99.90;;;;;;5075062;28;20209;-70
2021/05/05 07:07:08;;;;;;;36.50;11.63;;;6.10;99.90;;;;;;5073215;28;20177;-70
2021/05/05 07:09:34;;;;;;;18.97;9.80;;;6.10;99.90;;;;;;5074506;28;20239;-70
2021/05/05 07:11:59;;;;;;;19.80;10.47;;;6.20;99.90;;;;;;5074716;28;20173;-70
2021/05/05 07:14:25;;;;;;;25.83;10.73;;;6.30;99.90;;;;;;5074826;28;20178;-70
2021/05/05 07:16:50;;;;;;;15.00;10.20;;;6.40;99.90;;;;;;5074632;28;20222;-70
2021/05/05 07:19:16;;;;;;;12.77;9.60;;;6.40;99.90;;;;;;5074638;28;20229;-70
2021/05/05 07:21:42;;;;;;;11.20;8.47;;;6.60;99.90;;;;;;5074649;28;20310;-70
2021/05/05 07:24:08;;;;;;;8.50;7.50;;;6.70;99.90;;;;;;5074197;28;20278;-71
2021/05/05 07:26:33;;;;;;;8.00;7.20;;;6.80;99.90;;;;;;5074533;28;20180;-70
2021/05/05 07:28:59;;;;;;;6.93;5.70;;;6.80;99.90;;;;;;5074468;28;20432;-70
2021/05/05 07:31:25;;;;;;;11.07;5.83;;;6.80;99.90;;;;;;5074782;28;20242;-70
2021/05/05 07:33:51;;;;;;;7.70;5.10;;;6.70;99.90;;;;;;5074732;28;20181;-70
2021/05/05 07:36:21;;;;;;;6.37;4.60;;;6.80;99.90;;;;;;5075198;28;20180;-70
2021/05/05 07:46:22;;;;;;;21.20;7.07;;;6.90;99.90;;;;;;5083558;28;20427;-70
2021/05/05 07:48:52;;;;;;;14.33;6.27;;;6.80;99.90;;;;;;5074793;28;20228;-70
2021/05/05 07:51:17;;;;;;;7.00;6.30;;;6.80;99.90;;;;;;5074411;28;20465;-70
2021/05/05 07:53:43;;;;;;;12.10;7.10;;;6.80;99.90;;;;;;5072406;28;20416;-70
2021/05/05 07:56:09;;;;;;;9.60;7.13;;;6.90;99.90;;;;;;5076019;28;20180;-69
2021/05/05 07:58:34;;;;;;;7.93;7.13;;;6.90;99.90;;;;;;5063033;28;20704;-69
2021/05/05 08:01:00;;;;;;;6.43;5.80;;;7.00;99.90;;;;;;5053812;28;20539;-70
2021/05/05 08:03:26;;;;;;;28.30;7.33;;;6.90;99.90;;;;;;5054575;28;20228;-70
2021/05/05 08:05:51;;;;;;;9.33;5.60;;;6.90;99.90;;;;;;5055174;28;20181;-69
2021/05/05 08:08:17;;;;;;;47.90;8.77;;;6.80;99.90;;;;;;5054523;28;20186;-69
2021/05/05 08:10:43;;;;;;;7.23;5.80;;;6.80;99.90;;;;;;5056895;28;20194;-70
2021/05/05 08:13:08;;;;;;;6.40;5.40;;;6.80;99.90;;;;;;5054235;28;20174;-69
2021/05/05 08:15:35;;;;;;;41.03;8.97;;;6.80;99.90;;;;;;5054295;28;20174;-69
2021/05/05 08:18:05;;;;;;;9.30;6.00;;;6.80;99.90;;;;;;5052480;28;20820;-69
2021/05/05 08:20:35;;;;;;;24.77;6.93;;;6.80;99.90;;;;;;5053575;28;20298;-69
2021/05/05 08:23:08;;;;;;;8.03;5.33;;;6.70;99.90;;;;;;5054126;28;20412;-70
2021/05/05 08:25:34;;;;;;;5.53;4.43;;;6.70;99.90;;;;;;5053997;28;20421;-69
2021/05/05 08:28:00;;;;;;;45.77;9.30;;;6.60;99.90;;;;;;5053920;28;20409;-70
2021/05/05 08:30:27;;;;;;;51.30;8.33;;;6.70;99.90;;;;;;5052408;28;20222;-68
2021/05/05 08:32:53;;;;;;;25.30;6.97;;;6.70;99.90;;;;;;5053861;28;20499;-71
2021/05/05 08:35:18;;;;;;;7.43;4.13;;;6.70;99.90;;;;;;5053711;28;20500;-69
2021/05/05 08:37:47;;;;;;;3.40;2.50;;;6.50;99.90;;;;;;5053698;28;20444;-70
2021/05/05 08:40:13;;;;;;;3.23;2.17;;;6.20;99.90;;;;;;5053848;28;20190;-70
2021/05/05 08:42:43;;;;;;;12.60;3.00;;;6.10;99.90;;;;;;5053326;28;20490;-70
2021/05/05 08:45:14;;;;;;;13.83;3.30;;;6.20;99.90;;;;;;5053432;28;20404;-70
2021/05/05 08:47:42;;;;;;;23.07;4.40;;;6.40;99.90;;;;;;5053272;28;20487;-70
2021/05/05 08:50:10;;;;;;;7.60;4.00;;;6.60;99.90;;;;;;5053385;28;20425;-70
2021/05/05 08:52:36;;;;;;;8.83;3.30;;;6.70;99.90;;;;;;5053172;28;20404;-70
2021/05/05 08:55:02;;;;;;;5.83;3.50;;;6.70;99.90;;;;;;5053253;28;20436;-70
2021/05/05 08:57:27;;;;;;;3.70;3.33;;;6.70;99.90;;;;;;5052926;28;20409;-70
2021/05/05 08:59:53;;;;;;;5.93;4.47;;;6.70;99.90;;;;;;5053202;28;20424;-69
2021/05/05 09:02:18;;;;;;;5.90;4.23;;;6.80;99.90;;;;;;5053156;28;20268;-68
2021/05/05 09:04:58;;;;;;;4.20;3.80;;;7.00;99.90;;;;;;5053618;28;20170;-69
2021/05/05 09:07:32;;;;;;;5.40;4.90;;;7.20;99.90;;;;;;5052754;28;20201;-70
2021/05/05 09:10:07;;;;;;;5.10;4.60;;;7.40;99.90;;;;;;5053629;28;20993;-70
2021/05/05 09:12:35;;;;;;;5.70;4.30;;;7.60;99.90;;;;;;5056224;28;20426;-70
2021/05/05 09:15:14;;;;;;;5.37;4.57;;;7.70;99.90;;;;;;5057543;28;20416;-70
2021/05/05 09:17:45;;;;;;;4.43;4.00;;;7.90;99.90;;;;;;5055607;28;20400;-70
2021/05/05 09:20:13;;;;;;;4.87;4.37;;;8.10;99.90;;;;;;5055388;28;20468;-70
2021/05/05 09:22:40;;;;;;;6.00;4.00;;;8.30;99.90;;;;;;5057498;28;20472;-70
2021/05/05 09:25:09;;;;;;;6.67;3.90;;;8.50;99.90;;;;;;5057002;28;20408;-71
2021/05/05 09:27:35;;;;;;;4.80;4.40;;;8.70;99.90;;;;;;5055694;28;20444;-70
2021/05/05 09:30:21;;;;;;;6.80;4.77;;;8.80;99.90;;;;;;5056713;28;20918;-71
2021/05/05 09:32:56;;;;;;;5.63;4.90;;;9.00;99.90;;;;;;5057651;28;20468;-72
2021/05/05 09:35:39;;;;;;;5.83;4.47;;;8.90;99.90;;;;;;5055475;28;20453;-70
2021/05/05 09:38:10;;;;;;;8.77;4.53;;;9.00;99.90;;;;;;5054774;28;20419;-70
2021/05/05 09:40:53;;;;;;;7.70;4.47;;;9.10;99.90;;;;;;5058375;28;20432;-70
2021/05/05 09:43:18;;;;;;;5.40;4.97;;;9.10;99.90;;;;;;5066019;28;20390;-70
2021/05/05 09:45:45;;;;;;;5.73;4.50;;;9.10;99.90;;;;;;5057001;28;20566;-71
2021/05/05 09:48:12;;;;;;;7.00;5.20;;;9.10;99.90;;;;;;5056454;28;20469;-70
2021/05/05 09:50:45;;;;;;;6.67;5.00;;;9.10;99.90;;;;;;5056802;28;20430;-70
2021/05/05 09:53:25;;;;;;;6.93;4.50;;;9.10;99.90;;;;;;5056409;28;20428;-70
2021/05/05 09:55:51;;;;;;;6.70;4.57;;;9.10;99.90;;;;;;5056292;28;20886;-69
2021/05/05 09:59:02;;;;;;;8.17;4.20;;;9.10;99.90;;;;;;5058830;28;20413;-71
2021/05/05 10:01:27;;;;;;;5.97;4.50;;;9.10;99.90;;;;;;5054249;28;20270;-69
2021/05/05 10:03:59;;;;;;;6.33;4.60;;;9.10;99.90;;;;;;5055961;28;20433;-71
2021/05/05 10:09:47;;;;;;;6.60;4.83;;;9.20;99.90;;;;;;5054320;28;20993;-70
2021/05/05 10:15:42;;;;;;;7.30;4.80;;;9.30;99.90;;;;;;5054813;28;20193;-70
2021/05/05 10:18:25;;;;;;;6.33;5.10;;;9.00;99.90;;;;;;5054821;28;20420;-69
2021/05/05 10:24:13;;;;;;;7.97;6.00;;;9.10;99.90;;;;;;5053773;28;20400;-71
2021/05/05 10:26:42;;;;;;;10.00;5.97;;;9.30;99.90;;;;;;5056951;28;20389;-69
2021/05/05 10:29:08;;;;;;;7.53;5.80;;;9.30;99.90;;;;;;5050568;28;20456;-71
2021/05/05 10:31:36;;;;;;;6.40;5.77;;;9.30;99.90;;;;;;5045140;28;20766;-69
2021/05/05 10:34:14;;;;;;;15.07;5.50;;;9.10;99.90;;;;;;5043206;28;20427;-69
2021/05/05 10:36:46;;;;;;;4.50;3.50;;;8.70;99.90;;;;;;5049299;28;20449;-70
2021/05/05 10:39:17;;;;;;;4.57;3.40;;;8.00;99.90;;;;;;5042523;28;20446;-69
2021/05/05 10:41:59;;;;;;;3.33;2.53;;;6.80;99.90;;;;;;5045139;28;20456;-69
2021/05/05 10:44:46;;;;;;;3.20;2.93;;;6.40;99.90;;;;;;5052124;28;20496;-70
2021/05/05 10:47:19;;;;;;;5.70;3.80;;;6.10;99.90;;;;;;5043031;28;20452;-69
2021/05/05 10:50:00;;;;;;;4.70;4.30;;;6.10;99.90;;;;;;5052908;28;20479;-69
2021/05/05 10:56:01;;;;;;;4.20;3.40;;;6.10;99.90;;;;;;5064876;28;20450;-72
2021/05/05 11:02:30;;;;;;;4.27;3.87;;;6.20;99.90;;;;;;5070631;28;20513;-71
2021/05/05 11:05:11;;;;;;;5.70;4.97;;;6.60;99.90;;;;;;5079840;28;20423;-70
2021/05/05 11:07:48;;;;;;;8.30;4.70;;;7.10;99.90;;;;;;5061654;28;20440;-71
2021/05/05 11:13:35;;;;;;;6.47;5.73;;;7.90;99.90;;;;;;5059351;28;20703;-70
2021/05/05 11:16:50;;;;;;;9.13;6.50;;;8.20;99.90;;;;;;5052314;28;20448;-71
2021/05/05 11:19:52;;;;;;;10.43;6.00;;;8.40;99.90;;;;;;5063673;28;20579;-70
2021/05/05 11:22:23;;;;;;;9.80;7.72;;;8.60;99.90;;;;;;5007983;28;20453;-70
2021/05/05 11:24:50;;;;;;;10.67;6.50;;;8.80;99.90;;;;;;5008513;28;20259;-70
2021/05/05 11:27:38;;;;;;;8.40;6.67;;;9.00;99.90;;;;;;5010029;28;20447;-70
2021/05/05 11:30:34;;;;;;;11.43;6.40;;;9.00;99.90;;;;;;4996689;28;20504;-71
2021/05/05 11:33:00;;;;;;;6.97;6.23;;;8.90;99.90;;;;;;4973599;28;20446;-69
2021/05/05 11:35:28;;;;;;;7.80;6.50;;;8.80;99.90;;;;;;5002392;28;20438;-70
2021/05/05 11:38:08;;;;;;;9.47;6.40;;;8.80;99.90;;;;;;5007918;28;20815;-71
2021/05/05 11:40:33;;;;;;;7.97;5.67;;;9.00;99.90;;;;;;4999144;28;20903;-71
2021/05/05 11:42:59;;;;;;;6.87;5.67;;;9.00;99.90;;;;;;4991092;28;20511;-70
2021/05/05 11:45:24;;;;;;;7.10;5.90;;;9.20;99.90;;;;;;5008267;28;20308;-70
2021/05/05 11:47:50;;;;;;;5.57;5.07;;;9.20;99.90;;;;;;5007983;28;20175;-69
2021/05/05 11:50:21;;;;;;;5.23;4.63;;;9.40;99.90;;;;;;5008631;28;20655;-70
2021/05/05 11:52:48;;;;;;;5.87;4.63;;;9.30;99.90;;;;;;5009727;28;20231;-70
2021/05/05 11:55:15;;;;;;;7.00;5.70;;;9.20;99.90;;;;;;5013363;28;20429;-71
2021/05/05 11:57:50;;;;;;;4.10;3.57;;;9.20;99.90;;;;;;5052182;28;20470;-71
2021/05/05 12:00:22;;;;;;;6.03;3.87;;;9.00;99.90;;;;;;5051436;28;20455;-71
2021/05/05 12:03:20;;;;;;;5.03;2.67;;;8.20;99.90;;;;;;5052396;28;20514;-71
2021/05/05 12:05:46;;;;;;;5.50;3.40;;;7.10;99.90;;;;;;5052266;28;20424;-70
2021/05/05 12:08:16;;;;;;;7.20;3.77;;;6.80;99.90;;;;;;5048706;28;20425;-71
2021/05/05 12:10:50;;;;;;;4.57;3.67;;;6.60;99.90;;;;;;5050222;28;21014;-71
2021/05/05 12:13:22;;;;;;;4.93;3.50;;;6.70;99.90;;;;;;5050645;28;20397;-73
2021/05/05 12:16:03;;;;;;;5.60;3.33;;;6.80;99.90;;;;;;5050038;28;20413;-71
2021/05/05 12:18:36;;;;;;;5.23;3.77;;;7.00;99.90;;;;;;5049670;28;20405;-71
2021/05/05 12:21:08;;;;;;;9.47;4.80;;;7.30;99.90;;;;;;5040618;28;20551;-71
2021/05/05 12:23:48;;;;;;;8.47;4.40;;;7.50;99.90;;;;;;5050246;28;20497;-70
2021/05/05 12:26:25;;;;;;;6.93;4.87;;;7.80;99.90;;;;;;5053825;28;20440;-70
2021/05/05 12:28:56;;;;;;;6.43;5.63;;;8.10;99.90;;;;;;5056550;28;20913;-69
2021/05/05 12:31:32;;;;;;;5.83;3.80;;;8.20;99.90;;;;;;5051260;28;20534;-70
2021/05/05 12:34:00;;;;;;;5.03;3.40;;;8.30;99.90;;;;;;5051410;28;20486;-71
2021/05/05 12:36:29;;;;;;;6.33;3.73;;;8.40;99.90;;;;;;5047983;28;20465;-72
2021/05/05 12:39:01;;;;;;;7.10;4.00;;;8.40;99.90;;;;;;5039816;28;20772;-69
2021/05/05 12:41:41;;;;;;;9.10;4.07;;;8.40;99.90;;;;;;5045007;28;20552;-70
2021/05/05 12:44:08;;;;;;;8.07;4.07;;;8.50;99.90;;;;;;5040410;28;20420;-71
2021/05/05 12:46:58;;;;;;;6.88;3.53;;;8.50;99.90;;;;;;5048751;28;20489;-70
2021/05/05 12:49:32;;;;;;;4.40;3.93;;;8.10;99.90;;;;;;5051736;28;20210;-71
2021/05/05 12:51:58;;;;;;;8.70;3.27;;;8.10;99.90;;;;;;5056769;28;20532;-70
2021/05/05 12:54:27;;;;;;;3.30;2.40;;;8.00;99.90;;;;;;5050907;28;20484;-69
2021/05/05 12:56:54;;;;;;;6.97;2.50;;;8.00;99.90;;;;;;5053383;28;20210;-70
2021/05/05 12:59:34;;;;;;;4.47;2.70;;;8.00;99.90;;;;;;5052907;28;20492;-70
2021/05/05 13:02:16;;;;;;;2.57;2.40;;;8.20;99.90;;;;;;5052841;28;20629;-70
2021/05/05 13:04:46;;;;;;;3.70;2.63;;;8.20;99.90;;;;;;5052658;28;20425;-70
2021/05/05 13:07:29;;;;;;;3.73;2.70;;;8.40;99.90;;;;;;5057328;28;20417;-70
2021/05/05 13:10:12;;;;;;;3.20;2.83;;;8.50;99.90;;;;;;5056875;28;20431;-70
2021/05/05 13:12:42;;;;;;;2.67;2.37;;;8.70;99.90;;;;;;5059669;28;20417;-71
2021/05/05 13:30:14;;;;;;;3.10;2.37;;;9.50;99.90;;;;;;5055598;28;20524;-70
2021/05/05 13:32:57;;;;;;;5.60;2.70;;;9.80;99.90;;;;;;5052995;28;20434;-70
2021/05/05 13:35:36;;;;;;;6.00;3.27;;;9.60;99.90;;;;;;5055847;28;20470;-69
2021/05/05 13:38:12;;;;;;;6.93;2.80;;;9.30;99.90;;;;;;5055923;28;20419;-71
2021/05/05 13:40:43;;;;;;;3.77;2.17;;;9.30;99.90;;;;;;5055986;28;20434;-71
2021/05/05 13:43:20;;;;;;;5.63;2.72;;;9.00;99.90;;;;;;5055850;28;21082;-71